KALW

Walla Walla Regional Airport

Walla Walla, Washington, USA
KALW 252321Z 2600/2624 VRB04KT P6SM SKC FM260300 12006KT P6SM SKC FM261800 26006KT P6SM SKC
Issued Valid From Valid To
Apr-25 @ 23:21 UTC
(4 hours ago)
Apr-26 @ 00:00 UTC
(4 hours ago)
Apr-27 @ 00:00 UTC
(in 20 hours)
Expired Click to View Apr-26 @ 00:00 to Apr-26 @ 03:00
KALW 252321Z 2600/2624 VRB04KT P6SM SKC
Wind Visibility Clouds
Variable at 4 knots Greater than 6 miles
  • Clear skies
From Apr-26 @ 03:00 to Apr-26 @ 18:00
FM260300 12006KT P6SM SKC
Wind Visibility Clouds
120° at 6 knots Greater than 6 miles
  • Clear skies
From Apr-26 @ 18:00 to Apr-27 @ 00:00
FM261800 26006KT P6SM SKC
Wind Visibility Clouds
260° at 6 knots Greater than 6 miles
  • Clear skies
KALW 252321Z 2600/2624 VRB04KT P6SM SKC FM260300 12006KT P6SM SKC FM261800 26006KT P6SM SKC
Issued Apr-25 @ 23:21 UTC
(4 hours ago)
Valid From Apr-26 @ 00:00 UTC
(4 hours ago)
Valid To Apr-27 @ 00:00 UTC
(in 20 hours)
Apr-26 @ 00:00 - Apr-26 @ 03:00
Wind Visibility
Variable at 4 knots Greater than 6 miles
Clouds
  • Clear skies
From Apr-26 @ 03:00 - Apr-26 @ 18:00
Wind Visibility
120° at 6 knots Greater than 6 miles
Clouds
  • Clear skies
From Apr-26 @ 18:00 - Apr-27 @ 00:00
Wind Visibility
260° at 6 knots Greater than 6 miles
Clouds
  • Clear skies